Time;durP1;ratioP1;P1;durP2;ratioP2;P2;SDS_P1;SDS_P2;PMS_P1;PMS_P2;Temp;Humidity;BMP_temperature;BMP_pressure;BME280_temperature;BME280_humidity;BME280_pressure;Samples;Min_cycle;Max_cycle;Signal;HPM_P1;HPM_P2
2022/08/03 00:00:22;;;;;;;7.70;4.38;;;;;;;16.17;95.91;96221.44;2055859;28;20512;-41
2022/08/03 00:01:24;;;;;;;5.78;4.10;;;;;;;16.15;94.89;96218.94;2048029;28;20051;-40
2022/08/03 00:02:25;;;;;;;6.72;4.43;;;;;;;16.12;95.04;96219.13;2040512;29;20417;-42
2022/08/03 00:03:26;;;;;;;6.78;3.65;;;;;;;16.15;94.39;96218.09;2055736;28;20055;-40
2022/08/03 00:04:27;;;;;;;7.32;4.00;;;;;;;16.17;94.21;96226.66;2063548;28;20046;-41
2022/08/03 00:05:29;;;;;;;5.00;3.30;;;;;;;16.19;93.23;96219.56;2063786;28;20050;-39
2022/08/03 00:06:30;;;;;;;5.75;3.78;;;;;;;16.17;93.02;96227.53;2056316;28;20050;-41
2022/08/03 00:07:31;;;;;;;5.68;3.60;;;;;;;16.16;92.04;96211.91;2047962;28;20043;-42
2022/08/03 00:08:32;;;;;;;7.22;3.75;;;;;;;16.14;92.91;96219.03;2056046;28;20046;-44
2022/08/03 00:09:33;;;;;;;5.30;3.70;;;;;;;16.09;93.59;96216.69;2048439;28;20047;-40
2022/08/03 00:10:35;;;;;;;5.60;3.78;;;;;;;16.06;93.41;96216.91;2047725;29;20114;-41
2022/08/03 00:11:36;;;;;;;7.13;3.42;;;;;;;16.02;94.04;96215.44;2047985;28;20180;-40
2022/08/03 00:12:37;;;;;;;5.00;3.70;;;;;;;15.98;94.13;96217.41;2055692;28;20049;-44
2022/08/03 00:13:38;;;;;;;6.03;4.18;;;;;;;15.94;94.17;96215.94;2063585;28;20443;-40
2022/08/03 00:14:40;;;;;;;7.05;4.05;;;;;;;15.93;94.16;96211.66;2063077;28;20061;-40
2022/08/03 00:15:41;;;;;;;8.00;4.00;;;;;;;15.92;93.48;96217.81;2064366;28;20049;-40
2022/08/03 00:16:43;;;;;;;5.60;3.65;;;;;;;15.93;93.63;96216.88;2072239;28;20546;-40
2022/08/03 00:17:44;;;;;;;8.00;3.80;;;;;;;15.93;93.41;96219.50;2071382;28;20420;-42
2022/08/03 00:18:45;;;;;;;7.70;3.80;;;;;;;15.93;93.58;96218.63;2071563;28;20572;-42
2022/08/03 00:19:46;;;;;;;9.85;4.38;;;;;;;15.93;93.90;96216.88;2055707;28;20055;-40
2022/08/03 00:20:48;;;;;;;4.95;3.40;;;;;;;15.92;93.86;96217.81;2056156;28;20050;-43
2022/08/03 00:21:49;;;;;;;6.15;3.97;;;;;;;15.88;94.68;96216.34;2063909;28;20046;-40
2022/08/03 00:22:50;;;;;;;7.97;4.20;;;;;;;15.88;94.70;96214.56;2047961;28;20058;-40
2022/08/03 00:23:51;;;;;;;4.88;3.95;;;;;;;15.86;95.12;96213.81;2047969;28;20054;-41
2022/08/03 00:24:52;;;;;;;5.93;3.55;;;;;;;15.85;94.48;96216.50;2047181;29;20051;-40
2022/08/03 00:25:54;;;;;;;7.28;3.70;;;;;;;15.81;93.98;96215.88;2055553;28;20050;-42
2022/08/03 00:26:55;;;;;;;6.55;3.80;;;;;;;15.78;94.12;96223.09;2055357;28;20047;-40
2022/08/03 00:27:56;;;;;;;6.50;3.47;;;;;;;15.77;93.18;96218.78;2055636;28;20072;-42
2022/08/03 00:28:57;;;;;;;5.40;3.50;;;;;;;15.72;93.03;96206.00;2040395;29;20035;-40
2022/08/03 00:29:59;;;;;;;5.15;3.40;;;;;;;15.75;93.61;96210.22;2049072;28;20070;-41
2022/08/03 00:31:00;;;;;;;4.65;3.15;;;;;;;15.76;92.48;96217.13;2065738;28;20146;-43
2022/08/03 00:32:01;;;;;;;5.07;3.38;;;;;;;15.78;93.05;96212.63;2048773;29;20513;-42
2022/08/03 00:33:02;;;;;;;6.78;2.90;;;;;;;15.78;92.99;96207.38;2041819;28;20051;-43
2022/08/03 00:34:03;;;;;;;4.93;3.53;;;;;;;15.75;92.22;96211.03;2049296;28;20058;-41
2022/08/03 00:35:05;;;;;;;4.20;3.08;;;;;;;15.74;91.72;96211.13;2056918;28;20090;-41
2022/08/03 00:36:06;;;;;;;4.13;2.97;;;;;;;15.72;92.04;96211.25;2056752;28;20053;-43
2022/08/03 00:37:07;;;;;;;4.82;3.15;;;;;;;15.70;91.62;96215.75;2064649;28;20061;-40
2022/08/03 00:38:09;;;;;;;4.25;3.10;;;;;;;15.70;92.72;96210.50;2065346;28;20053;-41
2022/08/03 00:39:10;;;;;;;5.85;3.30;;;;;;;15.69;91.85;96215.81;2057409;28;20058;-39
2022/08/03 00:40:12;;;;;;;5.10;2.90;;;;;;;15.66;92.41;96206.34;2057233;28;20050;-41
2022/08/03 00:41:13;;;;;;;9.60;3.47;;;;;;;15.68;91.88;96208.88;2065057;28;20428;-41
2022/08/03 00:42:15;;;;;;;4.25;3.10;;;;;;;15.66;91.86;96204.59;2075068;28;20564;-41
2022/08/03 00:43:16;;;;;;;4.68;3.20;;;;;;;15.66;92.65;96203.72;2065643;28;20058;-39
2022/08/03 00:44:17;;;;;;;6.80;3.33;;;;;;;15.65;92.99;96205.50;2064637;28;20362;-40
2022/08/03 00:45:20;;;;;;;4.95;2.97;;;;;;;15.63;92.31;96210.00;2056972;28;20055;-40
2022/08/03 00:46:21;;;;;;;4.78;3.50;;;;;;;15.62;92.65;96215.34;2065072;28;20516;-44
2022/08/03 00:47:22;;;;;;;4.68;3.08;;;;;;;15.59;92.76;96205.09;2073701;28;20096;-40
2022/08/03 00:48:24;;;;;;;4.78;3.10;;;;;;;15.58;92.74;96203.38;2065569;28;20053;-40
2022/08/03 00:49:25;;;;;;;5.53;3.65;;;;;;;15.59;93.12;96202.47;2066019;28;20049;-40
2022/08/03 00:50:28;;;;;;;4.20;3.13;;;;;;;15.59;93.58;96203.31;2057599;28;20043;-41
2022/08/03 00:51:29;;;;;;;5.43;3.50;;;;;;;15.58;93.25;96200.78;2057976;28;20056;-41
2022/08/03 00:52:30;;;;;;;7.95;3.60;;;;;;;15.54;94.25;96208.00;2057845;28;20047;-41
2022/08/03 00:53:33;;;;;;;4.65;3.58;;;;;;;15.54;94.42;96208.00;2065971;28;20046;-41
2022/08/03 00:54:36;;;;;;;6.38;3.60;;;;;;;15.53;93.88;96206.31;2065048;28;20046;-41
2022/08/03 00:55:38;;;;;;;5.93;3.58;;;;;;;15.52;94.42;96209.03;2058059;28;20035;-40
2022/08/03 00:56:39;;;;;;;6.28;3.25;;;;;;;15.50;94.49;96208.28;2056862;28;20068;-42
2022/08/03 00:57:41;;;;;;;6.45;3.13;;;;;;;15.48;94.03;96208.38;2064837;28;20050;-40
2022/08/03 00:58:43;;;;;;;4.93;3.53;;;;;;;15.48;94.43;96204.94;2057245;28;20054;-41
2022/08/03 00:59:44;;;;;;;4.97;3.42;;;;;;;15.47;94.76;96204.06;2065023;28;20050;-40
2022/08/03 01:00:45;;;;;;;7.68;3.20;;;;;;;15.48;94.24;96204.94;2073792;28;20054;-40
2022/08/03 01:01:46;;;;;;;5.95;3.58;;;;;;;15.47;94.73;96209.31;2065895;28;20433;-42
2022/08/03 01:02:47;;;;;;;6.05;3.38;;;;;;;15.46;94.42;96201.56;2064763;28;20054;-40
2022/08/03 01:03:48;;;;;;;8.60;3.90;;;;;;;15.45;94.75;96205.97;2065866;28;20484;-41
2022/08/03 01:04:50;;;;;;;5.90;3.88;;;;;;;15.42;94.34;96207.00;2048854;28;20046;-43
2022/08/03 01:05:57;;;;;;;5.82;3.75;;;;;;;15.41;95.40;96207.09;2056741;28;20055;-40
2022/08/03 01:07:05;;;;;;;7.13;3.70;;;;;;;15.40;95.24;96211.47;2057716;28;20062;-41
2022/08/03 01:08:21;;;;;;;4.72;3.78;;;;;;;15.40;94.86;96205.41;2065933;28;20046;-41
2022/08/03 01:09:29;;;;;;;5.63;3.58;;;;;;;15.39;95.29;96206.34;2059191;28;20301;-41
2022/08/03 01:10:53;;;;;;;5.82;3.65;;;;;;;15.34;95.13;96209.25;2058493;28;20046;-40
2022/08/03 01:11:58;;;;;;;5.68;4.00;;;;;;;15.31;95.08;96198.97;2052247;28;20051;-41
2022/08/03 01:13:05;;;;;;;6.60;4.55;;;;;;;15.34;95.51;96205.78;2053638;28;20055;-41
2022/08/03 01:14:14;;;;;;;6.13;3.92;;;;;;;15.32;95.31;96207.69;2065778;28;20042;-41
2022/08/03 01:15:19;;;;;;;;;;;;;;;15.30;95.09;96204.31;2058162;28;20050;-39
2022/08/03 01:16:30;;;;;;;8.55;4.30;;;;;;;15.29;95.72;96205.22;2066203;28;20041;-44
2022/08/03 01:17:43;;;;;;;6.88;3.90;;;;;;;15.27;95.63;96207.13;2056785;28;20053;-41
2022/08/03 01:18:52;;;;;;;6.43;4.28;;;;;;;15.28;96.14;96200.94;2060317;28;20052;-41
2022/08/03 01:20:01;;;;;;;9.98;4.78;;;;;;;15.25;95.73;96203.75;2066139;28;20342;-41
2022/08/03 01:21:06;;;;;;;6.72;3.85;;;;;;;15.27;95.55;96207.13;2057729;28;20051;-41
2022/08/03 01:22:15;;;;;;;6.72;4.10;;;;;;;15.26;95.89;96195.78;2056845;28;20050;-41
2022/08/03 01:23:44;;;;;;;6.07;4.13;;;;;;;15.27;95.31;96207.97;2059587;28;20042;-41
2022/08/03 01:24:48;;;;;;;;;;;;;;;15.27;95.20;96204.50;2068981;28;20037;-41
2022/08/03 01:26:17;;;;;;;8.35;3.95;;;;;;;15.29;95.52;96200.00;2065582;28;19917;-41
2022/08/03 01:27:21;;;;;;;8.25;4.75;;;;;;;15.33;94.98;96191.03;2068633;28;20057;-40
2022/08/03 01:28:51;;;;;;;6.00;4.25;;;;;;;15.34;94.63;96195.31;2065025;28;20046;-41
2022/08/03 01:29:58;;;;;;;8.25;4.20;;;;;;;15.36;93.95;96198.69;2068699;28;20049;-41
2022/08/03 01:31:03;;;;;;;5.68;4.00;;;;;;;15.40;94.45;96193.16;2065534;28;20125;-41
2022/08/03 01:32:09;;;;;;;8.52;4.47;;;;;;;15.38;93.64;96194.19;2056614;28;20066;-40
2022/08/03 01:33:21;;;;;;;10.20;4.60;;;;;;;15.36;94.34;96201.28;2066027;28;20050;-41
2022/08/03 01:34:22;;;;;;;5.45;4.05;;;;;;;15.34;94.02;96200.53;2065393;28;20046;-41
2022/08/03 01:35:46;;;;;;;7.75;4.13;;;;;;;15.33;94.14;96201.50;2048794;28;20051;-43
2022/08/03 01:36:51;;;;;;;9.02;3.95;;;;;;;15.33;94.21;96198.88;2062631;28;20054;-44
2022/08/03 01:37:56;;;;;;;6.85;4.35;;;;;;;15.29;93.96;96190.41;2049366;28;20054;-41
2022/08/03 01:38:59;;;;;;;6.05;3.85;;;;;;;15.27;93.48;96194.88;2049587;28;20074;-43
2022/08/03 01:40:02;;;;;;;6.03;3.83;;;;;;;15.25;93.99;96196.75;2042718;28;20059;-40
2022/08/03 01:41:07;;;;;;;7.03;4.13;;;;;;;15.25;93.82;96190.66;2049395;28;20066;-41
2022/08/03 01:42:09;;;;;;;7.72;4.00;;;;;;;15.25;93.57;96188.06;2065161;28;20411;-41
2022/08/03 01:43:14;;;;;;;5.10;4.00;;;;;;;15.23;93.82;96198.59;2057144;28;20058;-41
2022/08/03 01:44:15;;;;;;;7.32;4.40;;;;;;;15.20;93.70;96190.94;2065242;28;20050;-41
2022/08/03 01:45:17;;;;;;;9.02;4.85;;;;;;;15.20;93.57;96191.78;2041637;29;20050;-42
2022/08/03 01:46:19;;;;;;;6.97;4.53;;;;;;;15.18;93.73;96191.06;2056651;28;20058;-41
2022/08/03 01:47:20;;;;;;;6.10;4.10;;;;;;;15.19;93.62;96195.34;2057230;28;20062;-41
2022/08/03 01:48:21;;;;;;;7.35;4.47;;;;;;;15.20;94.03;96197.03;2049563;28;20058;-43
2022/08/03 01:49:23;;;;;;;5.85;4.22;;;;;;;15.18;93.22;96190.19;2065232;28;20058;-39
2022/08/03 01:50:26;;;;;;;8.02;4.93;;;;;;;15.17;93.60;96191.97;2073035;28;20057;-42
2022/08/03 01:51:27;;;;;;;6.85;4.45;;;;;;;15.16;93.52;96187.69;2065245;28;20133;-42
2022/08/03 01:52:30;;;;;;;7.03;4.10;;;;;;;15.17;93.67;96197.22;2049194;29;20046;-41
2022/08/03 01:53:31;;;;;;;6.43;4.10;;;;;;;15.13;93.82;96193.13;2049344;28;20047;-40
2022/08/03 01:54:35;;;;;;;6.50;4.10;;;;;;;15.12;94.26;96195.81;2057621;28;20053;-41
2022/08/03 01:55:36;;;;;;;9.20;4.63;;;;;;;15.08;93.81;96189.94;2065143;28;20073;-45
2022/08/03 01:56:37;;;;;;;6.55;4.43;;;;;;;15.08;93.88;96187.34;2056800;28;20120;-40
2022/08/03 01:57:40;;;;;;;6.38;4.45;;;;;;;15.06;93.93;96186.59;2049498;28;20054;-40
2022/08/03 01:58:41;;;;;;;6.57;4.60;;;;;;;15.04;93.75;96192.84;2049694;28;20058;-40
2022/08/03 01:59:42;;;;;;;6.97;5.22;;;;;;;15.03;94.56;96188.56;2041573;28;20051;-42
2022/08/03 02:00:43;;;;;;;5.95;4.18;;;;;;;15.01;94.16;96193.88;2041013;28;20533;-40
2022/08/03 02:01:45;;;;;;;6.80;4.55;;;;;;;15.00;94.34;96190.41;2056771;28;20135;-46
2022/08/03 02:02:46;;;;;;;6.10;4.60;;;;;;;14.99;94.44;96190.50;2048703;28;20063;-40
2022/08/03 02:03:48;;;;;;;6.53;4.20;;;;;;;14.96;94.66;96188.91;2049102;28;20058;-41
2022/08/03 02:04:49;;;;;;;6.70;4.20;;;;;;;14.97;94.95;96193.22;2064367;28;20054;-42
2022/08/03 02:05:50;;;;;;;6.00;4.65;;;;;;;14.93;94.37;96186.50;2049045;28;20406;-43
2022/08/03 02:06:51;;;;;;;7.60;4.55;;;;;;;14.91;94.83;96193.59;2057080;28;20058;-40
2022/08/03 02:07:53;;;;;;;8.88;5.20;;;;;;;14.87;94.86;96194.72;2064381;28;20053;-42
2022/08/03 02:08:54;;;;;;;8.45;4.82;;;;;;;14.84;95.04;96181.00;2056632;28;20055;-40
2022/08/03 02:09:55;;;;;;;7.43;5.07;;;;;;;14.85;94.88;96193.13;2041188;29;20390;-41
2022/08/03 02:10:56;;;;;;;9.00;5.15;;;;;;;14.82;94.64;96190.72;2040975;29;20048;-40
2022/08/03 02:11:57;;;;;;;6.13;4.70;;;;;;;14.87;95.76;96193.88;2048903;28;20047;-41
2022/08/03 02:12:59;;;;;;;7.70;5.13;;;;;;;14.86;95.29;96192.19;2048744;28;20051;-44
2022/08/03 02:14:02;;;;;;;9.55;5.22;;;;;;;14.85;94.62;96203.59;2041063;29;20055;-41
2022/08/03 02:15:04;;;;;;;6.95;5.00;;;;;;;14.82;95.96;96193.31;2057554;28;20050;-41
2022/08/03 02:16:05;;;;;;;9.43;5.22;;;;;;;14.82;95.46;96198.56;2056596;28;20054;-42
2022/08/03 02:17:07;;;;;;;7.80;4.95;;;;;;;14.80;96.25;96200.41;2041394;28;20437;-42
2022/08/03 02:18:09;;;;;;;6.35;4.53;;;;;;;14.78;96.06;96192.66;2056434;28;20051;-41
2022/08/03 02:19:11;;;;;;;9.57;5.18;;;;;;;14.77;96.20;96194.44;2064924;28;20054;-40
2022/08/03 02:20:12;;;;;;;9.23;5.22;;;;;;;14.76;95.82;96198.00;2049208;28;20054;-42
2022/08/03 02:21:13;;;;;;;6.35;4.80;;;;;;;14.72;96.04;96185.19;2048615;29;20063;-41
2022/08/03 02:22:14;;;;;;;8.73;4.45;;;;;;;14.74;96.18;96196.41;2048592;29;20051;-39
2022/08/03 02:23:17;;;;;;;9.95;5.28;;;;;;;14.74;96.11;96197.22;2048483;28;20075;-42
2022/08/03 02:24:18;;;;;;;7.10;4.80;;;;;;;14.74;95.91;96194.63;2048770;28;20136;-40
2022/08/03 02:25:19;;;;;;;6.30;4.65;;;;;;;14.72;96.46;96193.88;2048872;28;20043;-40
2022/08/03 02:26:20;;;;;;;6.97;4.55;;;;;;;14.72;96.15;96196.47;2064990;28;20042;-40
2022/08/03 02:27:23;;;;;;;9.57;4.70;;;;;;;14.74;96.20;96191.16;2056504;28;20046;-44
2022/08/03 02:28:28;;;;;;;9.20;4.72;;;;;;;14.72;96.19;96198.25;2057442;28;20051;-40
2022/08/03 02:29:33;;;;;;;7.45;4.68;;;;;;;14.71;95.85;96199.22;2057168;28;20520;-39
2022/08/03 02:30:39;;;;;;;6.65;4.30;;;;;;;14.70;95.63;96200.97;2050178;28;20055;-42
2022/08/03 02:31:40;;;;;;;6.05;4.25;;;;;;;14.69;95.55;96201.91;2058056;28;20544;-39
2022/08/03 02:32:42;;;;;;;8.15;4.70;;;;;;;14.68;95.69;96195.00;2056535;28;20046;-39
2022/08/03 02:33:49;;;;;;;7.35;4.80;;;;;;;14.67;95.58;96203.75;2056535;28;20054;-42
2022/08/03 02:34:51;;;;;;;8.88;4.82;;;;;;;14.67;95.50;96195.09;2056910;28;20074;-41
2022/08/03 02:35:52;;;;;;;7.82;4.60;;;;;;;14.65;96.06;96197.81;2056575;28;20050;-41
2022/08/03 02:36:53;;;;;;;7.65;4.78;;;;;;;14.65;95.32;96192.56;2056458;28;20053;-41
2022/08/03 02:37:57;;;;;;;9.18;4.88;;;;;;;14.64;95.71;96190.88;2048590;28;20506;-40
2022/08/03 02:38:59;;;;;;;8.93;5.40;;;;;;;14.64;95.58;96201.34;2049610;28;20445;-41
2022/08/03 02:40:02;;;;;;;6.75;5.00;;;;;;;14.65;95.34;96187.34;2056788;28;20058;-41
2022/08/03 02:41:06;;;;;;;7.25;4.72;;;;;;;14.64;95.17;96190.03;2056750;28;20053;-40
2022/08/03 02:42:09;;;;;;;7.90;4.57;;;;;;;14.65;94.99;96191.72;2064600;28;20053;-41
2022/08/03 02:43:12;;;;;;;7.53;4.80;;;;;;;14.65;95.53;96192.56;2064671;28;20436;-41
2022/08/03 02:44:13;;;;;;;9.50;4.68;;;;;;;14.65;94.88;96196.94;2056845;28;20521;-39
2022/08/03 02:45:14;;;;;;;9.05;4.88;;;;;;;14.65;95.01;96195.19;2048294;28;20126;-42
2022/08/03 02:46:17;;;;;;;6.80;4.57;;;;;;;14.66;94.84;96191.63;2048413;29;20509;-42
2022/08/03 02:47:19;;;;;;;8.57;4.40;;;;;;;14.64;94.34;96188.25;2048454;28;20066;-39
2022/08/03 02:48:24;;;;;;;8.10;4.43;;;;;;;14.68;94.59;96192.38;2048802;28;20532;-42
2022/08/03 02:49:25;;;;;;;11.20;4.40;;;;;;;14.72;95.04;96186.03;2059398;28;20039;-41
2022/08/03 02:50:27;;;;;;;8.63;4.45;;;;;;;14.67;94.76;96185.47;2049591;29;20077;-43
2022/08/03 02:51:29;;;;;;;7.45;4.20;;;;;;;14.70;94.24;96189.66;2040694;28;20052;-44
2022/08/03 02:52:31;;;;;;;5.47;4.07;;;;;;;14.67;94.30;96182.84;2039976;28;20050;-43
2022/08/03 02:53:32;;;;;;;7.80;4.45;;;;;;;14.67;94.51;96188.06;2040479;29;20434;-39
2022/08/03 02:54:33;;;;;;;7.55;4.72;;;;;;;14.65;94.09;96189.97;2033961;29;20541;-41
2022/08/03 02:55:34;;;;;;;8.25;4.18;;;;;;;14.63;94.30;96189.22;2040547;29;20051;-41
2022/08/03 02:56:35;;;;;;;7.03;4.53;;;;;;;14.64;94.82;96193.50;2064235;28;20062;-41
2022/08/03 02:57:36;;;;;;;7.03;4.38;;;;;;;14.68;94.15;96186.31;2048655;28;20051;-40
2022/08/03 02:58:38;;;;;;;7.97;4.25;;;;;;;14.67;94.66;96190.69;2048363;28;20070;-40
2022/08/03 02:59:39;;;;;;;7.15;4.13;;;;;;;14.70;94.42;96190.53;2048254;28;20537;-41
2022/08/03 03:00:40;;;;;;;8.80;4.45;;;;;;;14.71;93.70;96191.38;2048697;28;20118;-40
2022/08/03 03:01:42;;;;;;;6.97;4.15;;;;;;;14.71;94.30;96188.75;2032994;28;20054;-40
2022/08/03 03:02:43;;;;;;;5.28;4.30;;;;;;;14.69;93.88;96180.16;2048542;28;20049;-43
2022/08/03 03:03:44;;;;;;;7.07;4.53;;;;;;;14.68;93.69;96189.78;2041459;28;20047;-39
2022/08/03 03:04:45;;;;;;;7.93;4.25;;;;;;;14.66;93.77;96185.56;2056803;28;20054;-40
2022/08/03 03:05:47;;;;;;;7.65;4.90;;;;;;;14.65;94.42;96182.13;2072044;28;20057;-40
2022/08/03 03:06:48;;;;;;;8.85;4.53;;;;;;;14.64;94.28;96188.25;2064155;28;20061;-40
2022/08/03 03:07:49;;;;;;;6.10;3.90;;;;;;;14.64;94.30;96183.03;2056153;28;20055;-40
2022/08/03 03:08:50;;;;;;;6.90;4.10;;;;;;;14.65;94.80;96183.88;2040819;29;20091;-42
2022/08/03 03:09:51;;;;;;;6.53;4.32;;;;;;;14.63;94.13;96183.97;2048765;28;20055;-41
2022/08/03 03:10:54;;;;;;;6.18;4.25;;;;;;;14.60;94.38;96178.94;2048387;29;20063;-42
2022/08/03 03:11:56;;;;;;;5.65;3.75;;;;;;;14.64;94.38;96187.44;2041547;28;20166;-41
2022/08/03 03:12:57;;;;;;;7.72;4.43;;;;;;;14.64;94.45;96182.19;2041100;28;20062;-40
2022/08/03 03:13:58;;;;;;;5.47;4.18;;;;;;;14.64;94.54;96184.81;2048760;28;20054;-40
2022/08/03 03:14:59;;;;;;;6.05;4.57;;;;;;;14.60;93.98;96178.09;2040852;29;20082;-43
2022/08/03 03:16:03;;;;;;;8.45;4.45;;;;;;;14.61;94.34;96178.00;2039958;29;20051;-40
2022/08/03 03:17:06;;;;;;;6.05;4.47;;;;;;;14.59;94.29;96184.25;2056520;28;20050;-40
2022/08/03 03:18:08;;;;;;;6.53;4.00;;;;;;;14.59;93.82;96184.25;2064299;28;20057;-40
2022/08/03 03:19:11;;;;;;;4.93;3.80;;;;;;;14.58;93.98;96187.81;2064439;28;20054;-43
2022/08/03 03:20:13;;;;;;;6.45;3.85;;;;;;;14.59;94.38;96179.03;2064367;28;20054;-40
2022/08/03 03:21:16;;;;;;;8.50;3.78;;;;;;;14.55;94.27;96188.84;2056531;28;20259;-40
2022/08/03 03:22:18;;;;;;;8.90;3.80;;;;;;;14.54;94.17;96180.16;2048355;28;20054;-41
2022/08/03 03:23:20;;;;;;;9.90;4.70;;;;;;;14.55;93.69;96181.00;2048393;29;20119;-39
2022/08/03 03:24:22;;;;;;;6.93;3.92;;;;;;;14.54;93.95;96188.00;2056198;28;20713;-40
2022/08/03 03:25:23;;;;;;;5.60;4.13;;;;;;;14.55;94.08;96189.66;2056478;28;20057;-41
2022/08/03 03:26:25;;;;;;;5.93;3.97;;;;;;;14.56;93.32;96186.09;2047933;28;20051;-40
2022/08/03 03:27:26;;;;;;;6.60;4.25;;;;;;;14.56;93.55;96190.50;2055766;28;20050;-39
2022/08/03 03:28:27;;;;;;;8.73;4.05;;;;;;;14.51;93.69;96187.28;2071925;28;20049;-41
2022/08/03 03:29:28;;;;;;;7.68;3.92;;;;;;;14.54;93.36;96181.91;2056949;28;20057;-41
2022/08/03 03:30:30;;;;;;;7.47;3.63;;;;;;;14.54;93.79;96189.75;2056438;28;20042;-40
2022/08/03 03:31:31;;;;;;;8.00;3.65;;;;;;;14.51;93.60;96182.94;2064564;28;20053;-41
2022/08/03 03:32:33;;;;;;;6.82;3.97;;;;;;;14.51;93.65;96184.66;2047780;29;20073;-43
2022/08/03 03:33:34;;;;;;;5.30;4.00;;;;;;;14.47;93.52;96184.03;2048191;28;20050;-41
2022/08/03 03:34:35;;;;;;;6.00;3.85;;;;;;;14.45;93.52;96188.50;2056371;28;20047;-39
2022/08/03 03:35:36;;;;;;;7.35;4.15;;;;;;;14.43;93.72;96181.69;2056095;28;20047;-43
2022/08/03 03:36:38;;;;;;;8.38;3.78;;;;;;;14.40;93.56;96184.47;2048106;28;20055;-41
2022/08/03 03:37:39;;;;;;;7.65;3.50;;;;;;;14.40;93.39;96179.25;2055962;28;20079;-40
2022/08/03 03:38:40;;;;;;;6.88;4.10;;;;;;;14.39;93.97;96181.03;2056092;28;20043;-39
2022/08/03 03:39:41;;;;;;;6.95;3.40;;;;;;;14.37;93.97;96177.66;2048197;28;20505;-41
2022/08/03 03:40:42;;;;;;;6.40;3.78;;;;;;;14.38;94.44;96181.09;2063845;28;20050;-40
2022/08/03 03:41:44;;;;;;;7.22;3.60;;;;;;;14.37;93.36;96172.44;2064187;28;20053;-45
2022/08/03 03:42:45;;;;;;;6.40;4.18;;;;;;;14.36;93.84;96172.53;2056133;28;20058;-44
2022/08/03 03:43:46;;;;;;;6.68;3.97;;;;;;;14.36;94.26;96175.16;2040149;28;20051;-40
2022/08/03 03:44:48;;;;;;;6.35;3.15;;;;;;;14.36;94.42;96169.94;2032514;29;20059;-41
2022/08/03 03:45:50;;;;;;;5.00;3.60;;;;;;;14.35;94.08;96176.91;2040800;28;20086;-43
2022/08/03 03:46:51;;;;;;;7.57;4.00;;;;;;;14.33;93.89;96181.41;2056323;28;20053;-41
2022/08/03 03:47:53;;;;;;;5.45;3.72;;;;;;;14.31;94.17;96178.03;2064161;28;20547;-43
2022/08/03 03:48:54;;;;;;;6.85;3.35;;;;;;;14.26;93.90;96175.69;2047666;29;20055;-40
2022/08/03 03:49:56;;;;;;;4.57;3.65;;;;;;;14.28;94.22;96183.44;2047009;28;20596;-40
2022/08/03 03:50:58;;;;;;;6.30;3.42;;;;;;;14.28;94.26;96181.66;2055556;28;20058;-42
2022/08/03 03:51:59;;;;;;;4.82;3.53;;;;;;;14.30;94.32;96179.81;2039490;28;20055;-40
2022/08/03 03:53:00;;;;;;;6.72;3.20;;;;;;;14.30;94.12;96177.19;2047472;28;20530;-39
2022/08/03 03:54:05;;;;;;;5.30;3.42;;;;;;;14.30;94.09;96176.34;2056133;28;20039;-40
2022/08/03 03:55:07;;;;;;;9.80;3.92;;;;;;;14.30;94.36;96178.94;2057067;28;20058;-41
2022/08/03 03:56:08;;;;;;;6.95;3.40;;;;;;;14.30;94.28;96176.34;2063263;28;20050;-40
2022/08/03 03:57:10;;;;;;;6.60;3.72;;;;;;;14.29;94.08;96191.16;2055522;28;20059;-41
2022/08/03 03:58:11;;;;;;;6.90;3.30;;;;;;;14.27;94.23;96177.38;2055838;28;20069;-41
2022/08/03 03:59:12;;;;;;;9.95;3.50;;;;;;;14.25;94.10;96186.25;2063701;28;20054;-40
2022/08/03 04:00:14;;;;;;;11.98;3.80;;;;;;;14.22;94.22;96179.44;2056072;28;20082;-43
2022/08/03 04:01:16;;;;;;;6.80;3.55;;;;;;;14.22;94.14;96182.03;2056619;28;20244;-43
2022/08/03 04:02:17;;;;;;;5.32;3.63;;;;;;;14.22;94.30;96187.25;2071814;28;20057;-40
2022/08/03 04:03:19;;;;;;;4.40;3.60;;;;;;;14.22;94.59;96187.25;2063076;28;20448;-40
2022/08/03 04:12:06;;;;;;;6.40;3.42;;;;;;;14.19;95.00;96184.81;2063713;28;20042;-41
2022/08/03 04:13:08;;;;;;;8.75;3.55;;;;;;;14.20;94.88;96178.66;2063388;28;20053;-40
2022/08/03 04:14:12;;;;;;;6.10;3.47;;;;;;;14.19;95.22;96178.75;2056281;28;20062;-41
2022/08/03 04:15:13;;;;;;;4.50;3.50;;;;;;;14.22;95.41;96183.78;2064673;28;20046;-39
2022/08/03 04:16:17;;;;;;;5.25;3.28;;;;;;;14.24;94.67;96187.16;2055528;28;20066;-42
2022/08/03 04:17:18;;;;;;;5.20;3.38;;;;;;;14.24;94.83;96185.38;2055640;28;20051;-40
2022/08/03 04:18:19;;;;;;;5.10;3.38;;;;;;;14.23;95.18;96194.16;2047346;29;20603;-40
2022/08/03 04:19:26;;;;;;;6.53;3.40;;;;;;;14.24;94.72;96188.00;2055585;28;20069;-39
2022/08/03 04:20:29;;;;;;;5.05;3.72;;;;;;;14.26;94.79;96195.75;2056578;28;20043;-41
2022/08/03 04:21:30;;;;;;;9.45;3.90;;;;;;;14.25;95.30;96194.06;2056315;28;20413;-43
2022/08/03 04:22:32;;;;;;;6.28;3.45;;;;;;;14.26;94.63;96188.75;2047242;29;20046;-40
2022/08/03 04:23:34;;;;;;;5.45;3.50;;;;;;;14.33;95.40;96192.69;2047745;28;20055;-40
2022/08/03 04:24:40;;;;;;;5.97;3.10;;;;;;;14.37;94.51;96200.34;2048511;28;20047;-40
2022/08/03 04:25:41;;;;;;;5.60;3.55;;;;;;;14.39;94.59;96191.47;2064327;28;20046;-40
2022/08/03 04:26:43;;;;;;;6.80;3.50;;;;;;;14.38;94.69;96189.81;2071418;28;20105;-44
2022/08/03 04:27:45;;;;;;;5.75;3.13;;;;;;;14.43;94.93;96194.75;2071779;28;20054;-42
2022/08/03 04:28:48;;;;;;;6.80;3.75;;;;;;;14.47;94.61;96186.63;2063586;28;20050;-41
2022/08/03 04:29:51;;;;;;;6.65;3.45;;;;;;;14.51;94.21;96196.00;2055253;28;20047;-41
2022/08/03 04:30:52;;;;;;;7.13;3.60;;;;;;;14.58;94.78;96195.66;2056375;28;20500;-40
2022/08/03 04:31:53;;;;;;;6.75;3.65;;;;;;;14.62;94.38;96198.00;2056308;28;20051;-42
2022/08/03 04:32:55;;;;;;;5.35;3.45;;;;;;;14.65;94.12;96191.72;2047735;28;20055;-40
2022/08/03 04:33:56;;;;;;;6.88;3.92;;;;;;;14.67;94.37;96202.91;2063858;28;20093;-39
2022/08/03 04:34:57;;;;;;;8.18;3.67;;;;;;;14.70;94.07;96197.50;2063468;28;20059;-41
2022/08/03 04:36:00;;;;;;;6.97;3.70;;;;;;;14.72;93.58;96199.09;2064102;28;20050;-40
2022/08/03 04:37:02;;;;;;;5.10;3.80;;;;;;;14.74;93.36;96204.25;2064487;28;20038;-40
2022/08/03 04:38:05;;;;;;;7.25;3.38;;;;;;;14.67;93.82;96185.47;2063540;28;20121;-41
2022/08/03 04:39:09;;;;;;;6.43;3.53;;;;;;;14.85;93.15;96198.38;2048100;29;20567;-41
2022/08/03 04:40:24;;;;;;;4.40;3.38;;;;;;;14.90;93.58;96201.53;2048749;28;20043;-40
2022/08/03 04:41:25;;;;;;;6.32;3.90;;;;;;;14.97;93.17;96195.84;2061430;28;20077;-43
2022/08/03 04:42:27;;;;;;;7.82;3.55;;;;;;;15.01;92.55;96199.09;2039569;28;20087;-40
2022/08/03 04:43:28;;;;;;;6.20;3.83;;;;;;;15.04;91.53;96201.53;2055695;28;20054;-41
2022/08/03 04:44:29;;;;;;;6.45;3.97;;;;;;;15.09;91.94;96202.09;2040233;29;20043;-41
2022/08/03 04:45:30;;;;;;;7.85;3.60;;;;;;;15.12;92.00;96201.06;2039951;28;20051;-41
2022/08/03 04:46:34;;;;;;;5.60;3.78;;;;;;;15.15;91.29;96206.09;2040060;29;20058;-42
2022/08/03 04:47:35;;;;;;;5.35;3.58;;;;;;;15.19;91.50;96212.81;2048393;28;20055;-40
2022/08/03 04:48:36;;;;;;;7.72;4.18;;;;;;;15.22;90.88;96205.63;2039972;29;20052;-41
2022/08/03 04:49:38;;;;;;;7.65;3.40;;;;;;;15.26;91.09;96213.28;2051744;28;20077;-40
2022/08/03 04:50:39;;;;;;;4.45;3.40;;;;;;;15.32;90.63;96215.53;2063877;28;20039;-41
2022/08/03 04:51:41;;;;;;;5.30;3.53;;;;;;;15.37;90.67;96216.03;2071655;28;20116;-41
2022/08/03 04:52:42;;;;;;;8.50;3.55;;;;;;;15.39;90.65;96217.63;2048161;28;20046;-40
2022/08/03 04:53:44;;;;;;;6.45;3.72;;;;;;;15.41;90.39;96213.16;2055414;28;20054;-41
2022/08/03 04:54:45;;;;;;;5.07;3.75;;;;;;;15.47;89.90;96219.78;2055760;28;20417;-40
2022/08/03 04:55:46;;;;;;;4.78;3.33;;;;;;;15.53;89.62;96216.78;2063801;28;20046;-42
2022/08/03 04:56:47;;;;;;;4.72;3.63;;;;;;;15.57;89.48;96218.25;2048037;29;20058;-39
2022/08/03 04:57:49;;;;;;;6.22;3.47;;;;;;;15.57;89.54;96222.66;2056060;28;20404;-40
2022/08/03 04:58:50;;;;;;;4.82;3.60;;;;;;;15.60;88.38;96222.47;2072770;28;20050;-40
2022/08/03 04:59:53;;;;;;;6.18;3.78;;;;;;;15.62;88.42;96224.03;2072644;28;20045;-42
2022/08/03 05:00:54;;;;;;;5.05;4.10;;;;;;;15.64;89.34;96223.97;2056090;28;20047;-41
2022/08/03 05:01:55;;;;;;;6.55;3.83;;;;;;;15.73;88.88;96219.94;2055207;28;20050;-38
2022/08/03 05:02:57;;;;;;;5.72;3.47;;;;;;;15.80;88.29;96224.69;2071776;28;20067;-42